Time;durP1;ratioP1;P1;durP2;ratioP2;P2;SDS_P1;SDS_P2;PMS_P1;PMS_P2;Temp;Humidity;BMP_temperature;BMP_pressure;BME280_temperature;BME280_humidity;BME280_pressure;Samples;Min_cycle;Max_cycle;Signal;HPM_P1;HPM_P2
2023/02/12 00:01:34;;;;;;;16.60;8.60;;;;;;;4.23;100.00;102515.41;5070935;28;20573;-68
2023/02/12 00:04:01;;;;;;;19.93;9.00;;;;;;;4.21;100.00;102516.19;5072585;28;20202;-69
2023/02/12 00:06:29;;;;;;;17.90;8.63;;;;;;;4.17;100.00;102518.69;5071046;28;20267;-70
2023/02/12 00:08:56;;;;;;;15.80;8.90;;;;;;;4.22;100.00;102518.81;5070240;28;20199;-69
2023/02/12 00:11:25;;;;;;;16.70;8.83;;;;;;;4.20;100.00;102525.63;5071009;28;20212;-69
2023/02/12 00:13:52;;;;;;;17.53;8.03;;;;;;;4.23;100.00;102517.97;5073118;28;20194;-70
2023/02/12 00:16:20;;;;;;;16.50;7.80;;;;;;;4.22;100.00;102523.09;5069071;28;20220;-70
2023/02/12 00:18:48;;;;;;;13.53;7.73;;;;;;;4.20;100.00;102514.44;5064625;28;20190;-70
2023/02/12 00:21:16;;;;;;;16.83;8.13;;;;;;;4.18;100.00;102512.66;5069557;28;20728;-69
2023/02/12 00:23:44;;;;;;;17.77;8.30;;;;;;;4.21;100.00;102526.53;5071399;28;20220;-70
2023/02/12 00:26:13;;;;;;;13.73;7.33;;;;;;;4.20;100.00;102541.13;5065577;28;20246;-70
2023/02/12 00:28:45;;;;;;;14.50;7.50;;;;;;;4.16;100.00;102541.88;5066698;28;20198;-70
2023/02/12 00:31:14;;;;;;;13.90;7.30;;;;;;;4.15;100.00;102543.56;5070420;28;20239;-70
2023/02/12 00:33:41;;;;;;;16.53;7.57;;;;;;;4.12;100.00;102542.59;5058661;28;20190;-70
2023/02/12 00:36:09;;;;;;;15.83;7.90;;;;;;;4.09;100.00;102534.75;5061829;28;20745;-70
2023/02/12 00:38:35;;;;;;;15.30;7.90;;;;;;;4.12;100.00;102535.72;5057737;28;20198;-70
2023/02/12 00:41:04;;;;;;;14.77;7.77;;;;;;;4.13;100.00;102541.75;5049569;28;20223;-70
2023/02/12 00:43:31;;;;;;;14.27;8.00;;;;;;;4.09;100.00;102547.66;5051201;28;20198;-70
2023/02/12 00:45:57;;;;;;;12.10;7.30;;;;;;;4.11;100.00;102559.78;5062668;28;20271;-70
2023/02/12 00:48:24;;;;;;;15.30;8.13;;;;;;;4.10;100.00;102555.47;5067469;28;20206;-71
2023/02/12 00:50:50;;;;;;;18.07;8.27;;;;;;;4.13;100.00;102552.09;5042507;28;20199;-70
2023/02/12 00:53:17;;;;;;;19.67;8.27;;;;;;;4.15;100.00;102560.75;5062343;28;20224;-71
2023/02/12 00:55:43;;;;;;;15.00;8.03;;;;;;;4.14;100.00;102553.84;5069021;28;20285;-70
2023/02/12 00:58:11;;;;;;;18.03;8.07;;;;;;;4.13;100.00;102555.56;5077492;28;20205;-70
2023/02/12 01:00:38;;;;;;;15.83;8.13;;;;;;;4.07;100.00;102560.53;5071376;28;20561;-70
2023/02/12 01:03:06;;;;;;;14.50;7.83;;;;;;;4.11;100.00;102566.66;5066360;28;20699;-70
2023/02/12 01:05:32;;;;;;;21.83;8.90;;;;;;;4.11;100.00;102569.25;5066641;28;20655;-70
2023/02/12 01:07:59;;;;;;;15.37;8.03;;;;;;;4.13;100.00;102571.06;5045729;28;20583;-70
2023/02/12 01:10:26;;;;;;;14.40;7.93;;;;;;;4.11;100.00;102564.06;5047562;28;20265;-70
2023/02/12 01:12:52;;;;;;;15.07;8.23;;;;;;;4.10;100.00;102570.09;5046966;28;20289;-71
2023/02/12 01:15:20;;;;;;;14.90;7.97;;;;;;;4.09;100.00;102564.03;5075758;28;20562;-70
2023/02/12 01:17:47;;;;;;;14.60;6.77;;;;;;;4.09;100.00;102565.75;5064491;28;20229;-70
2023/02/12 01:20:16;;;;;;;23.57;8.87;;;;;;;4.06;100.00;102566.50;5069740;28;20203;-70
2023/02/12 01:22:42;;;;;;;17.10;7.83;;;;;;;4.07;100.00;102567.41;5066110;28;20195;-70
2023/02/12 01:25:09;;;;;;;16.67;8.17;;;;;;;4.06;100.00;102565.63;5065405;28;20209;-70
2023/02/12 01:27:36;;;;;;;14.27;7.50;;;;;;;4.07;100.00;102570.84;5065948;28;20225;-70
2023/02/12 01:30:03;;;;;;;13.03;7.67;;;;;;;4.08;100.00;102571.72;5038476;28;20593;-70
2023/02/12 01:32:31;;;;;;;18.07;7.93;;;;;;;4.09;100.00;102573.47;5066194;28;20381;-70
2023/02/12 01:34:58;;;;;;;14.67;7.10;;;;;;;4.09;100.00;102576.06;5067200;28;20201;-71
2023/02/12 01:37:25;;;;;;;18.17;7.57;;;;;;;4.06;100.00;102575.97;5049616;28;20226;-70
2023/02/12 01:39:52;;;;;;;20.03;7.80;;;;;;;4.08;100.00;102569.13;5049899;28;20229;-70
2023/02/12 01:42:19;;;;;;;13.97;7.03;;;;;;;4.09;100.00;102576.06;5049728;28;20738;-70
2023/02/12 01:45:06;;;;;;;12.33;6.97;;;;;;;4.08;100.00;102564.88;5051088;28;20674;-70
2023/02/12 01:47:33;;;;;;;11.50;6.50;;;;;;;4.07;100.00;102563.09;5066439;28;20207;-70
2023/02/12 01:50:00;;;;;;;17.17;7.70;;;;;;;4.08;100.00;102567.44;5065510;28;20208;-70
2023/02/12 01:52:31;;;;;;;16.53;7.17;;;;;;;4.07;100.00;102573.44;5058293;28;20198;-70
2023/02/12 01:55:00;;;;;;;16.50;7.80;;;;;;;4.09;100.00;102570.91;5045887;28;20712;-70
2023/02/12 01:57:30;;;;;;;11.87;6.40;;;;;;;4.13;100.00;102578.81;5053209;28;20250;-70
2023/02/12 02:00:00;;;;;;;14.83;7.03;;;;;;;4.11;100.00;102574.41;5058892;28;20787;-70
2023/02/12 02:02:27;;;;;;;19.27;8.17;;;;;;;4.10;100.00;102578.69;5065615;28;20203;-70
2023/02/12 02:04:59;;;;;;;15.73;6.87;;;;;;;4.11;100.00;102577.84;5062341;28;20604;-70
2023/02/12 02:07:27;;;;;;;18.50;7.83;;;;;;;4.12;100.00;102583.91;5050150;28;20218;-70
2023/02/12 02:09:55;;;;;;;16.30;6.40;;;;;;;4.08;100.00;102587.22;5064336;28;20208;-70
2023/02/12 02:15:07;;;;;;;16.20;7.50;;;;;;;4.02;100.00;102593.06;5047276;28;20430;-70
2023/02/12 02:17:46;;;;;;;11.97;7.17;;;;;;;4.00;100.00;102586.97;5049954;28;20209;-70
2023/02/12 02:21:11;;;;;;;16.17;6.93;;;;;;;3.97;100.00;102590.34;5068817;28;20808;-70
2023/02/12 02:23:58;;;;;;;12.60;6.13;;;;;;;4.00;100.00;102583.53;5065895;28;20554;-70
2023/02/12 02:26:40;;;;;;;13.50;6.10;;;;;;;3.98;100.00;102586.06;5069662;28;20673;-70
2023/02/12 02:29:22;;;;;;;18.10;6.97;;;;;;;3.96;100.00;102588.56;5070174;28;20210;-70
2023/02/12 02:31:56;;;;;;;14.27;6.63;;;;;;;3.92;100.00;102589.31;5065101;28;20272;-70
2023/02/12 02:34:29;;;;;;;15.37;6.67;;;;;;;3.88;100.00;102587.44;5071040;28;20673;-70
2023/02/12 02:37:01;;;;;;;12.93;6.70;;;;;;;3.86;100.00;102588.22;5050723;28;21011;-70
2023/02/12 02:39:37;;;;;;;9.33;5.23;;;;;;;3.83;100.00;102596.72;5067328;28;20285;-70
2023/02/12 02:42:10;;;;;;;13.70;7.00;;;;;;;3.80;100.00;102594.06;5058658;28;20589;-71
2023/02/12 02:44:43;;;;;;;15.10;6.07;;;;;;;3.85;100.00;102596.78;5073633;28;20194;-70
2023/02/12 02:47:14;;;;;;;11.70;6.13;;;;;;;3.84;100.00;102592.47;5074735;28;20633;-70
2023/02/12 02:49:46;;;;;;;14.53;6.33;;;;;;;3.84;100.00;102595.91;5076545;28;20624;-70
2023/02/12 02:52:18;;;;;;;16.10;5.47;;;;;;;3.84;100.00;102601.06;5069189;28;20201;-70
2023/02/12 02:54:48;;;;;;;15.50;6.27;;;;;;;3.84;100.00;102597.63;5070819;28;20797;-70
2023/02/12 02:57:31;;;;;;;13.60;5.87;;;;;;;3.87;100.00;102601.19;5068479;28;20245;-70
2023/02/12 03:00:04;;;;;;;17.93;6.50;;;;;;;3.86;100.00;102604.59;5051129;28;20349;-70
2023/02/12 03:02:34;;;;;;;11.53;5.37;;;;;;;3.83;100.00;102599.31;5040427;28;20992;-70
2023/02/12 03:05:05;;;;;;;14.90;5.70;;;;;;;3.83;100.00;102609.63;5079515;28;20217;-70
2023/02/12 03:07:36;;;;;;;12.60;5.93;;;;;;;3.85;100.00;102625.19;5066310;28;20225;-70
2023/02/12 03:10:07;;;;;;;15.20;5.87;;;;;;;3.85;100.00;102620.88;5068614;28;20211;-70
2023/02/12 03:12:38;;;;;;;15.07;5.90;;;;;;;3.84;100.00;102619.16;5067718;28;20201;-70
2023/02/12 03:15:11;;;;;;;12.47;6.43;;;;;;;3.82;100.00;102631.13;5067536;28;20206;-70
2023/02/12 03:17:43;;;;;;;10.57;5.47;;;;;;;3.82;100.00;102631.13;5066200;28;20719;-70
2023/02/12 03:20:15;;;;;;;10.10;4.90;;;;;;;3.80;100.00;102625.03;5042892;28;20238;-70
2023/02/12 03:22:45;;;;;;;10.53;5.63;;;;;;;3.79;100.00;102631.00;5068884;28;20198;-70
2023/02/12 03:25:14;;;;;;;12.67;6.10;;;;;;;3.78;100.00;102637.88;5063465;28;20767;-70
2023/02/12 03:27:44;;;;;;;11.63;5.73;;;;;;;3.75;100.00;102642.94;5069776;28;20216;-71
2023/02/12 03:30:11;;;;;;;14.27;5.50;;;;;;;3.73;100.00;102644.59;5060657;28;20195;-70
2023/02/12 03:32:46;;;;;;;10.53;5.33;;;;;;;3.71;100.00;102648.81;5062416;28;20686;-70
2023/02/12 03:35:16;;;;;;;11.00;4.90;;;;;;;3.71;100.00;102645.34;5062878;28;20206;-70
2023/02/12 03:37:50;;;;;;;10.47;5.27;;;;;;;3.70;100.00;102648.75;5060207;28;20234;-70
2023/02/12 03:40:20;;;;;;;11.37;5.63;;;;;;;3.68;100.00;102647.84;5051456;28;20218;-70
2023/02/12 03:42:53;;;;;;;11.73;5.33;;;;;;;3.66;100.00;102658.09;5071975;28;20644;-70
2023/02/12 03:45:29;;;;;;;10.07;4.87;;;;;;;3.65;100.00;102655.47;5072017;28;20688;-70
2023/02/12 03:48:04;;;;;;;11.63;4.63;;;;;;;3.62;100.00;102657.94;5065638;28;20237;-70
2023/02/12 03:50:39;;;;;;;13.90;5.33;;;;;;;3.57;100.00;102656.06;5066914;28;20271;-71
2023/02/12 03:53:06;;;;;;;13.03;4.60;;;;;;;3.64;100.00;102669.19;5065141;28;20206;-70
2023/02/12 03:55:39;;;;;;;10.97;4.33;;;;;;;3.62;100.00;102663.97;5064222;28;20211;-70
2023/02/12 03:58:09;;;;;;;12.70;5.00;;;;;;;3.63;100.00;102663.16;5068659;28;20222;-71
2023/02/12 04:00:37;;;;;;;10.57;5.03;;;;;;;3.63;100.00;102672.59;5073586;28;20221;-70
2023/02/12 04:03:07;;;;;;;9.37;4.43;;;;;;;3.58;100.00;102675.00;5067504;28;20434;-70
2023/02/12 04:05:33;;;;;;;9.83;5.03;;;;;;;3.56;100.00;102684.41;5070974;28;20206;-70
2023/02/12 04:08:02;;;;;;;9.50;4.30;;;;;;;3.57;100.00;102688.72;5063640;28;20203;-70
2023/02/12 04:10:35;;;;;;;12.60;4.97;;;;;;;3.55;100.00;102692.94;5063953;28;20195;-70
2023/02/12 04:13:16;;;;;;;10.40;4.70;;;;;;;3.52;100.00;102686.00;5062577;28;20669;-70
2023/02/12 04:15:52;;;;;;;11.60;4.93;;;;;;;3.47;100.00;102684.94;5061910;28;20650;-70
2023/02/12 04:18:25;;;;;;;9.50;4.57;;;;;;;3.47;100.00;102694.38;5068706;28;20199;-70
2023/02/12 04:21:01;;;;;;;8.23;4.60;;;;;;;3.47;100.00;102695.25;5066806;28;20221;-70
2023/02/12 04:23:45;;;;;;;12.57;4.43;;;;;;;3.49;100.00;102705.63;5065793;28;20198;-70
2023/02/12 04:26:21;;;;;;;10.93;4.67;;;;;;;3.52;100.00;102708.34;5057310;28;20215;-70
2023/02/12 04:29:03;;;;;;;10.17;5.13;;;;;;;3.52;100.00;102713.50;5059040;28;20197;-70
2023/02/12 04:31:33;;;;;;;9.73;4.60;;;;;;;3.51;100.00;102717.75;5064844;28;20532;-70
2023/02/12 04:34:08;;;;;;;13.37;5.43;;;;;;;3.51;100.00;102714.31;5067237;28;20198;-70
2023/02/12 04:36:41;;;;;;;11.13;5.50;;;;;;;3.51;100.00;102717.75;5061847;28;20568;-70
2023/02/12 04:39:11;;;;;;;10.00;4.90;;;;;;;3.53;100.00;102708.38;5063699;28;20578;-71
2023/02/12 04:41:38;;;;;;;9.40;4.87;;;;;;;3.57;100.00;102720.56;5066869;28;20218;-70
2023/02/12 04:44:16;;;;;;;10.53;4.30;;;;;;;3.59;100.00;102718.91;5064840;28;20207;-70
2023/02/12 04:46:42;;;;;;;12.80;4.67;;;;;;;3.58;100.00;102719.72;5068341;28;20221;-70
2023/02/12 04:49:14;;;;;;;11.77;5.43;;;;;;;3.57;100.00;102719.66;5058776;28;20198;-70
2023/02/12 04:51:40;;;;;;;11.47;4.93;;;;;;;3.55;100.00;102722.22;5070258;28;20194;-70
2023/02/12 04:54:07;;;;;;;14.90;5.50;;;;;;;3.54;100.00;102725.59;5076238;28;20591;-70
2023/02/12 04:56:33;;;;;;;12.57;4.87;;;;;;;3.55;100.00;102714.47;5075192;28;20222;-70
2023/02/12 04:58:59;;;;;;;12.83;5.47;;;;;;;3.53;100.00;102720.38;5068324;28;20195;-70
2023/02/12 05:01:26;;;;;;;10.73;4.47;;;;;;;3.54;100.00;102727.31;5069237;28;20214;-70
2023/02/12 05:03:52;;;;;;;11.83;5.40;;;;;;;3.50;100.00;102733.16;5066929;28;20285;-70
2023/02/12 05:06:20;;;;;;;11.03;4.70;;;;;;;3.47;100.00;102728.78;5067085;28;20655;-71
2023/02/12 05:08:46;;;;;;;8.80;4.37;;;;;;;3.47;100.00;102736.53;5065499;28;20194;-70
2023/02/12 05:11:13;;;;;;;13.13;4.93;;;;;;;3.46;100.00;102742.50;5065162;28;20199;-70
2023/02/12 05:13:40;;;;;;;10.37;4.30;;;;;;;3.48;100.00;102739.97;5067329;28;20204;-70
2023/02/12 05:16:08;;;;;;;10.47;4.83;;;;;;;3.47;100.00;102746.84;5066884;28;20620;-70
2023/02/12 05:18:35;;;;;;;9.23;4.40;;;;;;;3.46;100.00;102745.06;5050980;28;20191;-70
2023/02/12 05:21:03;;;;;;;9.20;4.47;;;;;;;3.47;100.00;102745.97;5068939;28;20714;-70
2023/02/12 05:23:33;;;;;;;9.90;4.23;;;;;;;3.46;100.00;102739.03;5061004;28;20208;-70
2023/02/12 05:26:01;;;;;;;9.50;4.73;;;;;;;3.45;100.00;102743.34;5065764;28;20234;-70
2023/02/12 05:28:27;;;;;;;9.00;3.70;;;;;;;3.43;100.00;102742.41;5071446;28;20204;-70
2023/02/12 05:30:54;;;;;;;17.50;4.33;;;;;;;3.40;100.00;102734.53;5069496;28;20497;-70
2023/02/12 05:33:21;;;;;;;11.13;4.47;;;;;;;3.36;100.00;102737.81;5069023;28;20736;-70
2023/02/12 05:35:47;;;;;;;11.13;4.37;;;;;;;3.34;100.00;102745.53;5077014;28;20554;-70
2023/02/12 05:38:13;;;;;;;8.23;4.37;;;;;;;3.33;100.00;102748.91;5070805;28;20305;-70
2023/02/12 05:40:42;;;;;;;10.53;4.77;;;;;;;3.31;100.00;102749.69;5049084;28;20242;-70
2023/02/12 05:43:08;;;;;;;8.17;4.47;;;;;;;3.30;100.00;102753.06;5071592;28;20248;-70
2023/02/12 05:45:35;;;;;;;8.87;3.93;;;;;;;3.28;100.00;102750.44;5069381;28;20195;-70
2023/02/12 05:48:01;;;;;;;17.77;4.80;;;;;;;3.26;100.00;102752.06;5055443;28;20199;-70
2023/02/12 05:50:28;;;;;;;9.20;4.43;;;;;;;3.24;100.00;102758.88;5056797;28;20191;-70
2023/02/12 05:52:59;;;;;;;9.67;4.73;;;;;;;3.26;100.00;102757.22;5074048;28;20203;-70
2023/02/12 05:55:26;;;;;;;9.50;3.87;;;;;;;3.24;100.00;102761.47;5051708;28;20212;-70
2023/02/12 05:57:53;;;;;;;7.33;4.13;;;;;;;3.25;100.00;102763.19;5063787;28;20268;-70
2023/02/12 06:00:21;;;;;;;14.00;3.93;;;;;;;3.24;100.00;102766.63;5054665;28;20737;-70
2023/02/12 06:02:47;;;;;;;11.20;3.97;;;;;;;3.22;100.00;102770.84;5056386;28;20306;-70
2023/02/12 06:05:14;;;;;;;8.37;3.63;;;;;;;3.20;100.00;102768.19;5062941;28;20608;-71
2023/02/12 06:07:40;;;;;;;9.10;3.77;;;;;;;3.19;100.00;102771.59;5043459;28;20215;-70
2023/02/12 06:10:08;;;;;;;8.30;4.20;;;;;;;3.19;100.00;102770.72;5065273;28;20191;-70
2023/02/12 06:12:34;;;;;;;13.40;4.30;;;;;;;3.20;100.00;102780.19;5058983;28;20200;-70
2023/02/12 06:15:02;;;;;;;9.20;4.20;;;;;;;3.19;100.00;102774.16;5069723;28;20207;-70
2023/02/12 06:17:29;;;;;;;6.37;3.27;;;;;;;3.20;100.00;102778.50;5063063;28;20223;-70
2023/02/12 06:19:55;;;;;;;13.17;4.20;;;;;;;3.21;100.00;102782.81;5059261;28;20443;-70
2023/02/12 06:22:22;;;;;;;14.23;4.33;;;;;;;3.24;100.00;102782.09;5062930;28;20217;-70
2023/02/12 06:24:48;;;;;;;9.17;4.47;;;;;;;3.28;100.00;102785.66;5057408;28;20202;-70
2023/02/12 06:27:14;;;;;;;7.53;3.97;;;;;;;3.26;100.00;102795.91;5048026;28;20228;-70
2023/02/12 06:29:41;;;;;;;15.03;4.00;;;;;;;3.23;100.00;102793.19;5066522;28;20297;-70
2023/02/12 06:32:12;;;;;;;6.73;4.03;;;;;;;3.20;100.00;102801.72;5068607;28;20274;-70
2023/02/12 06:34:38;;;;;;;9.80;3.90;;;;;;;3.17;100.00;102806.75;5065018;28;20730;-70
2023/02/12 06:37:05;;;;;;;9.97;4.30;;;;;;;3.16;100.00;102804.97;5070662;28;20590;-70
2023/02/12 06:39:31;;;;;;;10.77;4.13;;;;;;;3.15;100.00;102805.81;5070271;28;20231;-70
2023/02/12 06:41:57;;;;;;;8.10;4.63;;;;;;;3.15;100.00;102813.53;5070616;28;20585;-70
2023/02/12 06:44:24;;;;;;;10.90;4.10;;;;;;;3.15;100.00;102813.53;5076320;28;20207;-70
2023/02/12 06:46:50;;;;;;;11.67;4.30;;;;;;;3.16;100.00;102812.69;5066720;28;20218;-70
2023/02/12 06:49:18;;;;;;;10.80;4.33;;;;;;;3.14;100.00;102814.34;5050932;28;20202;-70
2023/02/12 06:51:44;;;;;;;9.00;3.87;;;;;;;3.13;100.00;102827.16;5071997;28;20197;-70
2023/02/12 06:54:16;;;;;;;8.77;4.13;;;;;;;3.12;100.00;102826.31;5066342;28;20190;-70
2023/02/12 06:56:42;;;;;;;10.83;4.33;;;;;;;3.14;100.00;102826.38;5064406;28;20246;-71
2023/02/12 06:59:14;;;;;;;13.23;4.50;;;;;;;3.17;100.00;102831.66;5069056;28;20195;-70
2023/02/12 07:01:40;;;;;;;12.50;4.93;;;;;;;3.18;100.00;102828.22;5064192;28;20213;-71
2023/02/12 07:04:06;;;;;;;9.23;4.50;;;;;;;3.19;100.00;102835.16;5063646;28;20575;-70
2023/02/12 07:06:38;;;;;;;11.43;5.00;;;;;;;3.19;100.00;102833.47;5063958;28;20218;-70
2023/02/12 07:09:05;;;;;;;6.07;3.67;;;;;;;3.18;100.00;102834.28;5066573;28;20207;-70
2023/02/12 07:11:34;;;;;;;8.37;4.13;;;;;;;3.19;100.00;102837.75;5060128;28;20492;-70
2023/02/12 07:14:00;;;;;;;8.63;4.63;;;;;;;3.19;100.00;102836.03;5042585;28;20682;-70
2023/02/12 07:16:28;;;;;;;20.17;4.37;;;;;;;3.22;100.00;102843.91;5041139;28;20283;-70
2023/02/12 07:18:54;;;;;;;11.07;4.40;;;;;;;3.26;100.00;102849.19;5065197;28;20206;-70
2023/02/12 07:21:21;;;;;;;15.83;5.10;;;;;;;3.29;100.00;102854.44;5055033;28;20259;-70
2023/02/12 07:23:50;;;;;;;7.87;3.90;;;;;;;3.32;100.00;102852.84;5071479;28;20194;-70
2023/02/12 07:26:17;;;;;;;13.63;4.67;;;;;;;3.36;100.00;102859.00;5066594;28;20248;-70
2023/02/12 07:28:44;;;;;;;11.20;4.33;;;;;;;3.39;100.00;102867.78;5068635;28;20209;-70
2023/02/12 07:31:13;;;;;;;10.83;4.73;;;;;;;3.43;100.00;102866.19;5050124;28;20568;-70
2023/02/12 07:33:40;;;;;;;16.07;4.90;;;;;;;3.48;100.00;102866.34;5048118;28;20199;-70
2023/02/12 07:36:09;;;;;;;11.27;4.40;;;;;;;3.51;100.00;102872.50;5071726;28;20232;-70
2023/02/12 07:38:38;;;;;;;12.57;4.53;;;;;;;3.56;100.00;102877.88;5081528;28;20206;-70
2023/02/12 07:41:12;;;;;;;13.67;5.03;;;;;;;3.61;100.00;102878.94;5073604;28;20230;-70
2023/02/12 07:43:39;;;;;;;9.30;4.80;;;;;;;3.65;100.00;102878.22;5045451;28;20200;-70
2023/02/12 07:46:07;;;;;;;10.27;4.07;;;;;;;3.68;100.00;102886.06;5074452;28;20825;-70
2023/02/12 07:48:34;;;;;;;10.13;4.00;;;;;;;3.71;100.00;102893.94;5068604;28;20202;-70
2023/02/12 07:51:04;;;;;;;14.80;4.87;;;;;;;3.73;100.00;102889.72;5066154;28;20621;-70
2023/02/12 07:53:30;;;;;;;11.33;4.90;;;;;;;3.77;100.00;102893.28;5067775;28;20191;-70
2023/02/12 07:56:05;;;;;;;11.73;4.87;;;;;;;3.81;100.00;102894.28;5061092;28;20219;-70
2023/02/12 07:58:32;;;;;;;12.50;5.67;;;;;;;3.84;100.00;102895.28;5042078;28;20703;-70
2023/02/12 08:00:59;;;;;;;13.37;6.23;;;;;;;3.88;100.00;102898.84;5061306;28;20195;-71
2023/02/12 08:03:27;;;;;;;12.50;6.17;;;;;;;3.91;100.00;102899.84;5063363;28;20582;-70
2023/02/12 08:05:54;;;;;;;15.47;5.37;;;;;;;3.95;100.00;102901.72;5043462;28;20198;-71
2023/02/12 08:08:20;;;;;;;14.67;5.57;;;;;;;3.99;100.00;102907.88;5059677;28;20263;-70
2023/02/12 08:10:47;;;;;;;12.23;5.57;;;;;;;4.04;100.00;102911.50;5057519;28;20198;-71
2023/02/12 08:13:13;;;;;;;11.93;4.53;;;;;;;4.07;100.00;102909.03;5064039;28;20202;-70
2023/02/12 08:15:42;;;;;;;10.13;4.67;;;;;;;4.12;100.00;102911.81;5066934;28;20202;-70
2023/02/12 08:18:08;;;;;;;15.47;5.00;;;;;;;4.17;100.00;102918.91;5062687;28;20685;-70
2023/02/12 08:20:34;;;;;;;11.73;5.47;;;;;;;4.22;100.00;102916.50;5050138;28;20195;-71
2023/02/12 08:23:04;;;;;;;14.83;6.57;;;;;;;4.23;100.00;102918.25;5043759;28;20218;-70
2023/02/12 08:25:30;;;;;;;17.80;5.90;;;;;;;4.24;100.00;102917.44;5062745;28;20202;-70
2023/02/12 08:27:56;;;;;;;13.87;5.90;;;;;;;4.25;100.00;102924.34;5036093;28;20310;-70
2023/02/12 08:30:23;;;;;;;16.70;5.27;;;;;;;4.31;100.00;102926.25;5062406;28;20218;-70
2023/02/12 08:32:50;;;;;;;19.90;6.63;;;;;;;4.37;100.00;102926.50;5064790;28;20201;-70
2023/02/12 08:35:17;;;;;;;16.87;7.30;;;;;;;4.45;100.00;102929.34;5061836;28;20612;-70
2023/02/12 08:37:43;;;;;;;17.70;9.03;;;;;;;4.48;100.00;102922.56;5063768;28;20227;-70
2023/02/12 08:40:12;;;;;;;16.03;7.03;;;;;;;4.50;100.00;102923.53;5066240;28;20593;-70
2023/02/12 08:42:38;;;;;;;16.97;7.77;;;;;;;4.53;100.00;102912.41;5066972;28;20297;-70
2023/02/12 08:45:05;;;;;;;17.60;11.23;;;;;;;4.60;100.00;102914.38;5064544;28;20206;-71
2023/02/12 08:47:31;;;;;;;19.07;7.47;;;;;;;4.60;100.00;102910.94;5062636;28;20218;-70
2023/02/12 08:50:02;;;;;;;21.87;8.33;;;;;;;4.67;100.00;102918.06;5065074;28;20206;-70
2023/02/12 08:52:29;;;;;;;12.70;5.87;;;;;;;4.68;100.00;102917.25;5042957;28;20199;-70
2023/02/12 08:54:55;;;;;;;18.50;5.93;;;;;;;4.70;100.00;102921.66;5061479;28;20202;-70
2023/02/12 08:57:21;;;;;;;19.83;6.30;;;;;;;4.73;100.00;102924.34;5047524;28;20308;-70
2023/02/12 08:59:48;;;;;;;21.60;6.77;;;;;;;4.77;100.00;102935.66;5061363;28;20198;-71
2023/02/12 09:02:15;;;;;;;22.17;7.73;;;;;;;4.81;100.00;102939.22;5058925;28;20582;-71
2023/02/12 09:04:41;;;;;;;26.20;8.60;;;;;;;4.84;100.00;102937.63;5065160;28;20194;-70
2023/02/12 09:07:09;;;;;;;20.23;7.53;;;;;;;4.82;100.00;102939.28;5059212;28;20763;-71
2023/02/12 09:09:35;;;;;;;20.30;7.43;;;;;;;4.85;100.00;102941.09;5059919;28;20210;-72
2023/02/12 09:12:05;;;;;;;18.30;7.67;;;;;;;4.89;100.00;102948.09;5058529;28;20206;-72
2023/02/12 09:14:32;;;;;;;20.90;7.57;;;;;;;4.96;100.00;102954.38;5061411;28;20199;-72
2023/02/12 09:16:58;;;;;;;28.43;11.77;;;;;;;4.97;100.00;102954.44;5061131;28;20226;-72
2023/02/12 09:19:25;;;;;;;31.70;13.97;;;;;;;5.00;100.00;102946.78;5058529;28;20195;-72
2023/02/12 09:21:52;;;;;;;24.53;10.20;;;;;;;4.97;100.00;102951.84;5058779;28;20214;-72
2023/02/12 09:24:20;;;;;;;28.73;10.47;;;;;;;4.97;100.00;102963.91;5034733;28;20244;-72
2023/02/12 09:26:46;;;;;;;28.03;7.87;;;;;;;4.95;100.00;102963.84;5043142;28;20252;-72
2023/02/12 09:29:12;;;;;;;25.60;8.03;;;;;;;4.95;100.00;102965.56;5067042;28;20260;-72
2023/02/12 09:31:39;;;;;;;20.80;7.80;;;;;;;4.92;100.00;102968.91;5058778;28;20203;-72
2023/02/12 09:34:06;;;;;;;23.30;7.30;;;;;;;4.91;100.00;102962.88;5061137;28;20726;-72
2023/02/12 09:36:34;;;;;;;23.50;8.13;;;;;;;4.92;100.00;102962.06;5059938;28;20226;-72
2023/02/12 09:39:00;;;;;;;24.03;7.13;;;;;;;4.93;100.00;102963.78;5063191;28;20197;-72
2023/02/12 09:41:49;;;;;;;21.30;6.97;;;;;;;4.93;100.00;102971.56;5063636;28;20199;-72
2023/02/12 09:44:22;;;;;;;25.17;8.17;;;;;;;4.91;100.00;102974.94;5044697;28;20959;-72
2023/02/12 09:46:53;;;;;;;31.43;8.33;;;;;;;4.91;100.00;102968.03;5061427;28;20235;-72
2023/02/12 09:49:34;;;;;;;20.60;6.97;;;;;;;4.95;100.00;102981.06;5061849;28;20201;-72
2023/02/12 09:52:02;;;;;;;30.43;8.00;;;;;;;4.94;100.00;102972.41;5062724;28;20271;-72
2023/02/12 09:54:36;;;;;;;25.40;8.07;;;;;;;4.96;100.00;102977.66;5047465;28;20217;-72
2023/02/12 09:57:13;;;;;;;27.17;8.10;;;;;;;4.98;100.00;102987.22;5058441;28;20626;-72
2023/02/12 09:59:44;;;;;;;29.10;8.40;;;;;;;5.01;100.00;102986.44;5059670;28;20575;-72
2023/02/12 10:02:14;;;;;;;27.50;8.03;;;;;;;5.02;100.00;102993.38;5057414;28;20214;-72
2023/02/12 10:04:42;;;;;;;28.87;8.50;;;;;;;5.02;100.00;102993.38;5067090;28;20194;-72
2023/02/12 10:07:24;;;;;;;34.60;7.60;;;;;;;5.03;100.00;102988.28;5037743;28;20235;-72
2023/02/12 10:10:14;;;;;;;21.37;7.17;;;;;;;5.06;100.00;102984.91;5057538;28;20187;-72
2023/02/12 10:12:50;;;;;;;22.73;7.63;;;;;;;5.10;100.00;102982.47;5058412;28;20570;-72
2023/02/12 10:15:38;;;;;;;27.07;9.90;;;;;;;5.18;100.00;102979.28;5062371;28;20210;-72
2023/02/12 10:18:20;;;;;;;26.13;8.73;;;;;;;5.16;100.00;102979.22;5058839;28;21943;-72
2023/02/12 10:21:03;;;;;;;30.10;7.80;;;;;;;5.15;100.00;102981.75;5063377;28;20194;-72
2023/02/12 10:23:49;;;;;;;20.03;7.13;;;;;;;5.22;100.00;102978.53;5067928;28;20293;-72
2023/02/12 10:26:21;;;;;;;27.53;8.43;;;;;;;5.23;100.00;102985.50;5062913;28;20309;-72
2023/02/12 10:28:49;;;;;;;14.80;6.80;;;;;;;5.27;100.00;102974.41;5060111;28;20208;-72
2023/02/12 10:31:22;;;;;;;16.63;7.07;;;;;;;5.23;100.00;102978.59;5063257;28;20210;-72
2023/02/12 10:33:50;;;;;;;15.53;6.00;;;;;;;5.23;100.00;102976.00;5061197;28;20207;-72
2023/02/12 10:36:30;;;;;;;16.10;5.47;;;;;;;5.28;100.00;102981.34;5057362;28;20235;-72
2023/02/12 10:39:01;;;;;;;16.37;6.13;;;;;;;5.26;100.00;102976.13;5057911;28;20199;-72
2023/02/12 10:41:31;;;;;;;15.63;6.53;;;;;;;5.33;100.00;102982.38;5059848;28;20541;-72
2023/02/12 10:43:58;;;;;;;16.97;6.23;;;;;;;5.37;100.00;102978.19;5055357;28;20881;-72
2023/02/12 10:46:25;;;;;;;21.83;7.33;;;;;;;5.37;100.00;102978.19;5056805;28;20223;-72
2023/02/12 10:48:53;;;;;;;22.20;7.13;;;;;;;5.43;100.00;102978.38;5055778;28;20581;-72
2023/02/12 10:51:48;;;;;;;19.43;6.13;;;;;;;5.45;100.00;102977.63;5044094;28;20281;-72
2023/02/12 10:54:36;;;;;;;24.33;7.27;;;;;;;5.52;100.00;102977.78;5063315;28;20191;-72
2023/02/12 10:57:13;;;;;;;18.43;6.57;;;;;;;5.63;100.00;102976.44;5063716;28;20271;-72
2023/02/12 10:59:41;;;;;;;13.07;6.10;;;;;;;5.63;100.00;102974.72;5065008;28;20488;-72
2023/02/12 11:02:20;;;;;;;16.77;5.77;;;;;;;5.68;100.00;102972.25;5069755;28;20192;-72
2023/02/12 11:04:47;;;;;;;15.47;5.87;;;;;;;5.74;100.00;102974.19;5059277;28;20372;-72
2023/02/12 11:07:13;;;;;;;15.07;5.93;;;;;;;5.80;100.00;102971.78;5062014;28;20223;-72
2023/02/12 11:09:45;;;;;;;15.80;5.93;;;;;;;5.82;100.00;102965.84;5060787;28;20706;-72
2023/02/12 11:12:28;;;;;;;19.37;5.80;;;;;;;5.87;100.00;102966.84;5056769;28;20323;-72
2023/02/12 11:14:59;;;;;;;18.30;6.73;;;;;;;5.90;100.00;102966.06;5053797;28;20477;-72
2023/02/12 11:17:29;;;;;;;15.37;5.50;;;;;;;5.85;100.00;102959.84;5068262;28;20294;-72
2023/02/12 11:20:18;;;;;;;23.03;7.30;;;;;;;5.96;100.00;102967.97;5068079;28;20260;-72
2023/02/12 11:22:50;;;;;;;25.33;9.33;;;;;;;6.03;100.00;102967.34;5057481;28;20468;-72
2023/02/12 11:25:17;;;;;;;23.07;8.33;;;;;;;6.02;100.00;102963.00;5059996;28;20757;-72
2023/02/12 11:27:44;;;;;;;12.67;5.93;;;;;;;6.05;100.00;102971.75;5058163;28;20259;-73
2023/02/12 11:30:18;;;;;;;16.50;6.33;;;;;;;6.07;100.00;102969.19;5064017;28;20580;-72
2023/02/12 11:32:45;;;;;;;16.83;5.87;;;;;;;6.10;100.00;102968.41;5040117;28;20279;-72
2023/02/12 11:35:17;;;;;;;12.97;5.33;;;;;;;6.18;100.00;102969.53;5064102;28;20208;-72